createdAt,value
2019-03-13T00:00:28.422Z,1.50
2019-03-13T00:02:57.071Z,1.43
2019-03-13T00:05:25.978Z,1.20
2019-03-13T00:07:54.737Z,1.30
2019-03-13T00:10:23.190Z,0.97
2019-03-13T00:12:51.886Z,1.20
2019-03-13T00:15:20.559Z,1.10
2019-03-13T00:17:49.123Z,1.37
2019-03-13T00:20:18.193Z,1.47
2019-03-13T00:22:46.706Z,1.40
2019-03-13T00:25:15.911Z,1.33
2019-03-13T00:27:44.360Z,1.53
2019-03-13T00:30:14.384Z,1.20
2019-03-13T00:32:42.981Z,1.33
2019-03-13T00:35:12.379Z,1.20
2019-03-13T00:37:40.948Z,1.30
2019-03-13T00:40:13.225Z,1.33
2019-03-13T00:42:42.143Z,1.03
2019-03-13T00:45:13.002Z,1.10
2019-03-13T00:47:41.508Z,1.03
2019-03-13T00:50:22.360Z,1.13
2019-03-13T00:52:51.197Z,1.00
2019-03-13T00:55:19.771Z,0.80
2019-03-13T00:57:48.439Z,1.20
2019-03-13T01:00:35.469Z,0.93
2019-03-13T01:03:05.637Z,0.90
2019-03-13T01:05:44.847Z,0.83
2019-03-13T01:08:13.524Z,0.90
2019-03-13T01:10:42.734Z,0.70
2019-03-13T01:13:11.368Z,0.63
2019-03-13T01:15:39.930Z,0.50
2019-03-13T01:18:08.545Z,0.70
2019-03-13T01:20:37.324Z,0.83
2019-03-13T01:23:06.252Z,0.70
2019-03-13T01:25:34.868Z,0.57
2019-03-13T01:28:03.822Z,0.50
2019-03-13T01:30:34.159Z,0.70
2019-03-13T01:33:04.237Z,1.40
2019-03-13T01:35:34.467Z,1.13
2019-03-13T01:38:02.906Z,0.70
2019-03-13T01:40:31.753Z,1.10
2019-03-13T01:43:01.851Z,1.03
2019-03-13T01:45:30.745Z,1.00
2019-03-13T01:47:59.353Z,0.77
2019-03-13T01:50:27.917Z,0.67
2019-03-13T01:52:56.704Z,0.87
2019-03-13T01:55:25.133Z,0.60
2019-03-13T01:57:53.889Z,0.67
2019-03-13T02:00:22.375Z,0.60
2019-03-13T02:02:50.819Z,0.70
2019-03-13T02:05:19.248Z,0.70
2019-03-13T02:07:47.772Z,0.80
2019-03-13T02:10:16.279Z,0.90
2019-03-13T02:12:44.899Z,0.60
2019-03-13T02:15:20.061Z,0.90
2019-03-13T02:17:48.677Z,0.70
2019-03-13T02:20:17.284Z,0.60
2019-03-13T02:22:46.072Z,0.80
2019-03-13T02:25:16.958Z,0.80
2019-03-13T02:27:45.497Z,0.90
2019-03-13T02:30:20.078Z,1.67
2019-03-13T02:32:48.959Z,0.70
2019-03-13T02:35:17.646Z,0.60
2019-03-13T02:37:46.134Z,0.70
2019-03-13T02:40:15.664Z,0.77
2019-03-13T02:42:44.466Z,0.80
2019-03-13T02:45:14.457Z,0.70
2019-03-13T02:47:43.023Z,0.70
2019-03-13T02:50:13.896Z,0.60
2019-03-13T02:52:42.665Z,0.70
2019-03-13T02:55:12.189Z,0.80
2019-03-13T02:57:41.215Z,0.70
2019-03-13T03:00:16.780Z,0.60
2019-03-13T03:02:52.853Z,0.57
2019-03-13T03:05:21.383Z,0.70
2019-03-13T03:07:50.465Z,0.70
2019-03-13T03:10:19.343Z,0.90
2019-03-13T03:12:48.244Z,0.70
2019-03-13T03:15:18.462Z,0.70
2019-03-13T03:17:47.354Z,0.70
2019-03-13T03:20:18.932Z,0.80
2019-03-13T03:22:47.599Z,0.70
2019-03-13T03:25:18.123Z,0.70
2019-03-13T03:27:46.746Z,0.80
2019-03-13T03:30:20.404Z,0.70
2019-03-13T03:32:49.276Z,0.60
2019-03-13T03:35:18.179Z,0.70
2019-03-13T03:37:46.814Z,0.70
2019-03-13T03:40:22.441Z,0.80
2019-03-13T03:42:49.854Z,0.60
2019-03-13T03:45:18.984Z,0.67
2019-03-13T03:47:48.136Z,0.67
2019-03-13T03:50:17.698Z,0.60
2019-03-13T03:52:46.683Z,0.70
2019-03-13T03:55:18.685Z,0.60
2019-03-13T03:57:47.200Z,0.80
2019-03-13T04:00:19.400Z,0.70
2019-03-13T04:02:48.532Z,0.60
2019-03-13T04:05:17.008Z,0.60
2019-03-13T04:07:46.372Z,0.70
2019-03-13T04:10:16.065Z,0.60
2019-03-13T04:12:44.754Z,0.80
2019-03-13T04:15:15.538Z,0.80
2019-03-13T04:17:44.422Z,0.70
2019-03-13T04:20:17.038Z,0.70
2019-03-13T04:22:45.949Z,0.60
2019-03-13T04:25:23.508Z,0.70
2019-03-13T04:27:52.031Z,0.60
2019-03-13T04:30:20.732Z,0.70
2019-03-13T04:32:50.279Z,0.60
2019-03-13T04:35:18.877Z,0.70
2019-03-13T04:37:47.473Z,0.70
2019-03-13T04:40:16.293Z,0.90
2019-03-13T04:42:45.074Z,0.70
2019-03-13T04:45:13.575Z,0.90
2019-03-13T04:47:42.557Z,0.73
2019-03-13T04:50:12.950Z,0.70
2019-03-13T04:52:41.446Z,0.90
2019-03-13T04:55:14.926Z,0.87
2019-03-13T04:57:43.362Z,0.70
2019-03-13T05:03:45.834Z,0.90
2019-03-13T05:06:33.623Z,0.90
2019-03-13T05:09:02.025Z,0.80
2019-03-13T05:11:49.777Z,0.70
2019-03-13T05:14:37.543Z,0.90
2019-03-13T05:17:25.318Z,0.90
2019-03-13T05:20:06.384Z,0.80
2019-03-13T05:22:47.232Z,1.10
2019-03-13T05:25:27.899Z,1.00
2019-03-13T05:28:08.765Z,1.27
2019-03-13T05:30:52.818Z,0.93
2019-03-13T05:33:32.082Z,1.03
2019-03-13T05:36:12.827Z,1.17
2019-03-13T05:38:53.519Z,1.10
2019-03-13T05:41:34.163Z,1.20
2019-03-13T05:44:14.350Z,1.50
2019-03-13T05:46:55.051Z,1.40
2019-03-13T05:49:35.772Z,1.30
2019-03-13T05:52:16.622Z,1.30
2019-03-13T05:54:57.443Z,1.00
2019-03-13T05:57:38.135Z,1.20
2019-03-13T06:00:20.866Z,1.00
2019-03-13T06:03:02.042Z,1.57
2019-03-13T06:05:42.721Z,1.17
2019-03-13T06:08:23.540Z,1.10
2019-03-13T06:11:04.463Z,1.10
2019-03-13T06:13:47.393Z,1.20
2019-03-13T06:16:27.916Z,1.03
2019-03-13T06:19:08.895Z,0.83
2019-03-13T06:21:49.662Z,1.10
2019-03-13T06:24:30.518Z,1.00
2019-03-13T06:27:11.608Z,1.03
2019-03-13T06:29:40.171Z,1.13
2019-03-13T06:32:09.648Z,1.10
2019-03-13T06:34:38.188Z,1.30
2019-03-13T06:37:06.787Z,1.10
2019-03-13T06:39:35.530Z,1.23
2019-03-13T06:42:04.014Z,1.30
2019-03-13T06:44:33.928Z,1.67
2019-03-13T06:47:02.436Z,1.20
2019-03-13T06:49:30.951Z,1.17
2019-03-13T06:52:18.739Z,1.33
2019-03-13T06:55:06.807Z,1.20
2019-03-13T06:57:54.559Z,1.37
2019-03-13T07:03:31.761Z,1.27
2019-03-13T07:06:14.563Z,1.23
2019-03-13T07:08:57.088Z,1.20
2019-03-13T07:11:39.586Z,1.20
2019-03-13T07:14:39.927Z,1.40
2019-03-13T07:20:36.052Z,1.60
2019-03-13T07:23:43.029Z,1.30
2019-03-13T07:32:43.068Z,1.13
2019-03-13T07:35:50.130Z,1.07
2019-03-13T07:38:57.096Z,1.27
2019-03-13T07:42:04.116Z,0.97
2019-03-13T07:45:11.068Z,1.00
2019-03-13T07:48:18.024Z,1.20
2019-03-13T07:51:24.991Z,0.80
2019-03-13T07:54:31.940Z,0.97
2019-03-13T08:00:37.212Z,0.80
2019-03-13T08:03:44.179Z,0.90
2019-03-13T08:06:51.142Z,1.20
2019-03-13T08:13:06.599Z,1.67
2019-03-13T08:16:13.551Z,1.07
2019-03-13T08:19:20.516Z,1.23
2019-03-13T08:22:05.943Z,0.60
2019-03-13T08:24:48.189Z,1.40
2019-03-13T08:27:32.835Z,1.00
2019-03-13T08:30:14.757Z,1.53
2019-03-13T08:33:14.827Z,1.00
2019-03-13T08:36:14.707Z,1.90
2019-03-13T08:39:14.212Z,1.70
2019-03-13T08:42:13.683Z,1.03
2019-03-13T08:45:13.354Z,0.90
2019-03-13T08:47:56.124Z,0.90
2019-03-13T08:50:38.722Z,1.50
2019-03-13T08:53:39.045Z,1.63
2019-03-13T08:56:23.823Z,1.10
2019-03-13T08:59:08.692Z,1.43
2019-03-13T09:04:41.772Z,0.90
2019-03-13T09:07:25.059Z,1.00
2019-03-13T09:10:01.255Z,1.13
2019-03-13T09:12:31.344Z,1.40
2019-03-13T09:15:18.634Z,0.90
2019-03-13T09:17:51.516Z,0.90
2019-03-13T09:20:21.636Z,0.80
2019-03-13T09:23:00.635Z,1.23
2019-03-13T09:25:30.769Z,1.10
2019-03-13T09:28:10.163Z,0.97
2019-03-13T09:30:52.201Z,1.27
2019-03-13T09:33:37.444Z,1.10
2019-03-13T09:36:13.579Z,0.80
2019-03-13T09:39:01.453Z,0.70
2019-03-13T09:45:00.033Z,0.97
2019-03-13T09:48:06.990Z,0.80
2019-03-13T09:51:13.967Z,1.20
2019-03-13T09:54:06.298Z,0.80
2019-03-13T09:56:52.490Z,1.00
2019-03-13T09:59:43.582Z,1.00
2019-03-13T10:02:13.805Z,0.83
2019-03-13T10:11:10.039Z,1.00
2019-03-13T10:14:16.993Z,1.30
2019-03-13T10:17:23.969Z,1.00
2019-03-13T10:23:00.612Z,0.97
2019-03-13T10:26:00.952Z,0.80
2019-03-13T10:28:42.840Z,0.90
2019-03-13T10:31:43.087Z,0.90
2019-03-13T10:34:42.479Z,1.27
2019-03-13T10:37:42.136Z,0.90
2019-03-13T10:40:41.726Z,1.10
2019-03-13T10:43:41.247Z,0.87
2019-03-13T10:46:25.814Z,1.10
2019-03-13T10:55:08.704Z,1.00
2019-03-13T10:58:15.666Z,0.93
2019-03-13T11:01:22.633Z,0.90
2019-03-13T11:04:29.668Z,1.40
2019-03-13T11:10:31.791Z,1.00
2019-03-13T11:13:38.751Z,0.90
2019-03-13T11:16:45.729Z,0.93
2019-03-13T11:22:51.150Z,1.10
2019-03-13T11:31:51.305Z,1.00
2019-03-13T11:34:27.338Z,1.17
2019-03-13T11:37:13.740Z,1.33
2019-03-13T11:39:59.918Z,1.30
2019-03-13T11:42:45.306Z,2.17
2019-03-13T11:45:15.453Z,1.10
2019-03-13T11:48:01.758Z,1.20
2019-03-13T11:50:32.639Z,1.17
2019-03-13T11:53:08.914Z,1.00
2019-03-13T11:55:39.066Z,1.30
2019-03-13T11:58:09.168Z,1.03
2019-03-13T12:00:45.183Z,1.00
2019-03-13T12:03:15.326Z,1.30
2019-03-13T12:05:57.104Z,0.83
2019-03-13T12:08:39.407Z,1.20
2019-03-13T12:11:11.924Z,1.07
2019-03-13T12:13:59.550Z,0.80
2019-03-13T12:17:06.315Z,0.80
2019-03-13T12:23:21.783Z,0.80
2019-03-13T12:29:37.274Z,1.00
2019-03-13T12:32:44.240Z,0.97
2019-03-13T12:38:59.719Z,0.90
2019-03-13T12:45:15.186Z,1.50
2019-03-13T12:48:22.169Z,1.20
2019-03-13T12:51:29.146Z,0.77
2019-03-13T12:54:36.145Z,1.20
2019-03-13T12:57:43.099Z,1.10
2019-03-13T13:00:50.067Z,1.17
2019-03-13T13:03:57.039Z,1.03
2019-03-13T13:06:49.086Z,0.73
2019-03-13T13:09:19.324Z,0.80
2019-03-13T13:11:49.384Z,1.00
2019-03-13T13:14:38.664Z,1.00
2019-03-13T13:17:11.176Z,0.90
2019-03-13T13:19:39.604Z,1.33
2019-03-13T13:22:08.021Z,0.97
2019-03-13T13:24:36.540Z,1.10
2019-03-13T13:27:05.296Z,1.00
2019-03-13T13:29:33.733Z,1.40
2019-03-13T13:32:02.154Z,1.47
2019-03-13T13:34:30.583Z,0.80
2019-03-13T13:36:59.034Z,1.23
2019-03-13T13:39:27.523Z,1.00
2019-03-13T13:41:55.949Z,0.90
2019-03-13T13:44:24.383Z,0.80
2019-03-13T13:46:52.839Z,1.57
2019-03-13T13:49:21.291Z,1.00
2019-03-13T13:51:49.722Z,0.97
2019-03-13T13:54:18.148Z,1.17
2019-03-13T13:56:46.583Z,1.70
2019-03-13T13:59:15.030Z,0.83
2019-03-13T14:01:43.458Z,1.53
2019-03-13T14:04:11.866Z,1.37
2019-03-13T14:06:40.303Z,1.03
2019-03-13T14:09:08.739Z,1.30
2019-03-13T14:11:37.174Z,1.00
2019-03-13T14:14:05.657Z,1.40
2019-03-13T14:16:34.115Z,0.90
2019-03-13T14:19:02.545Z,1.10
2019-03-13T14:21:30.988Z,2.03
2019-03-13T14:23:59.412Z,1.43
2019-03-13T14:26:27.911Z,1.17
2019-03-13T14:28:56.342Z,1.70
2019-03-13T14:31:24.849Z,1.07
2019-03-13T14:33:53.273Z,1.40
2019-03-13T14:36:21.766Z,1.73
2019-03-13T14:38:50.240Z,1.00
2019-03-13T14:41:18.675Z,1.40
2019-03-13T14:43:47.117Z,1.67
2019-03-13T14:46:15.561Z,1.17
2019-03-13T14:48:43.983Z,1.10
2019-03-13T14:51:12.414Z,1.50
2019-03-13T14:53:40.827Z,1.90
2019-03-13T14:56:09.258Z,1.23
2019-03-13T14:58:37.700Z,1.20
2019-03-13T15:01:06.161Z,1.40
2019-03-13T15:03:34.582Z,1.10
2019-03-13T15:06:03.042Z,1.50
2019-03-13T15:08:31.529Z,4.40
2019-03-13T15:10:59.966Z,8.47
2019-03-13T15:13:28.393Z,1.30
2019-03-13T15:15:56.826Z,2.60
2019-03-13T15:18:25.246Z,2.10
2019-03-13T15:20:53.995Z,1.27
2019-03-13T15:23:22.417Z,1.07
2019-03-13T15:25:50.851Z,0.97
2019-03-13T15:28:19.280Z,1.00
2019-03-13T15:30:47.715Z,1.30
2019-03-13T15:33:16.130Z,1.20
2019-03-13T15:35:44.585Z,1.37
2019-03-13T15:38:12.988Z,1.40
2019-03-13T15:40:42.744Z,1.47
2019-03-13T15:43:11.142Z,1.23
2019-03-13T15:45:39.570Z,1.20
2019-03-13T15:48:08.023Z,1.13
2019-03-13T15:50:36.494Z,1.53
2019-03-13T15:53:05.013Z,1.33
2019-03-13T15:55:33.444Z,1.63
2019-03-13T15:58:01.892Z,1.40
2019-03-13T16:00:31.189Z,1.10
2019-03-13T16:02:59.631Z,1.70
2019-03-13T16:05:28.157Z,1.40
2019-03-13T16:07:56.654Z,0.90
2019-03-13T16:10:25.081Z,1.20
2019-03-13T16:12:55.149Z,1.40
2019-03-13T16:15:38.908Z,1.60
2019-03-13T16:18:07.411Z,1.33
2019-03-13T16:20:35.873Z,1.30
2019-03-13T16:23:04.394Z,1.13
2019-03-13T16:25:32.853Z,1.27
2019-03-13T16:28:01.397Z,1.80
2019-03-13T16:30:31.790Z,1.53
2019-03-13T16:33:00.228Z,1.60
2019-03-13T16:35:28.687Z,1.30
2019-03-13T16:37:57.119Z,1.30
2019-03-13T16:40:25.556Z,1.27
2019-03-13T16:42:53.982Z,1.10
2019-03-13T16:45:23.102Z,1.40
2019-03-13T16:47:51.540Z,1.57
2019-03-13T16:50:28.608Z,1.50
2019-03-13T16:52:57.010Z,1.30
2019-03-13T16:55:25.443Z,1.07
2019-03-13T16:57:53.868Z,1.47
2019-03-13T17:00:29.489Z,1.93
2019-03-13T17:02:58.061Z,1.30
2019-03-13T17:05:26.581Z,1.43
2019-03-13T17:07:55.268Z,1.83
2019-03-13T17:10:27.391Z,1.43
2019-03-13T17:12:55.889Z,1.77
2019-03-13T17:15:24.851Z,1.47
2019-03-13T17:17:54.108Z,1.30
2019-03-13T17:20:26.302Z,1.93
2019-03-13T17:22:55.252Z,1.77
2019-03-13T17:25:23.750Z,2.03
2019-03-13T17:27:52.181Z,1.60
2019-03-13T17:30:23.220Z,2.37
2019-03-13T17:32:51.720Z,1.93
2019-03-13T17:35:20.277Z,2.97
2019-03-13T17:37:48.705Z,1.57
2019-03-13T17:40:22.912Z,1.40
2019-03-13T17:42:51.383Z,1.73
2019-03-13T17:45:23.626Z,1.70
2019-03-13T17:47:52.394Z,1.50
2019-03-13T17:50:22.151Z,2.63
2019-03-13T17:52:50.647Z,1.90
2019-03-13T17:55:27.312Z,1.80
2019-03-13T17:57:55.747Z,1.40
2019-03-13T18:00:28.298Z,1.40
2019-03-13T18:02:56.763Z,1.47
2019-03-13T18:05:25.248Z,1.50
2019-03-13T18:07:53.675Z,1.73
2019-03-13T18:10:22.425Z,2.10
2019-03-13T18:12:50.957Z,2.00
2019-03-13T18:15:19.393Z,2.37
2019-03-13T18:17:47.815Z,1.60
2019-03-13T18:20:25.125Z,1.90
2019-03-13T18:22:53.614Z,1.87
2019-03-13T18:25:22.041Z,1.70
2019-03-13T18:27:50.466Z,1.40
2019-03-13T18:30:29.727Z,2.73
2019-03-13T18:32:58.153Z,1.80
2019-03-13T18:35:26.575Z,1.83
2019-03-13T18:37:55.014Z,2.30
2019-03-13T18:40:24.090Z,1.67
2019-03-13T18:42:52.719Z,2.00
2019-03-13T18:45:28.657Z,1.53
2019-03-13T18:47:57.433Z,2.10
2019-03-13T18:50:26.420Z,1.20
2019-03-13T18:52:54.844Z,1.27
2019-03-13T18:55:33.651Z,2.10
2019-03-13T18:58:02.178Z,2.20
2019-03-13T19:00:31.764Z,1.47
2019-03-13T19:03:00.296Z,1.90
2019-03-13T19:05:30.285Z,1.70
2019-03-13T19:07:58.807Z,2.07
2019-03-13T19:10:33.656Z,1.37
2019-03-13T19:13:02.152Z,1.73
2019-03-13T19:15:31.195Z,1.77
2019-03-13T19:18:01.069Z,1.43
2019-03-13T19:20:30.468Z,1.80
2019-03-13T19:22:58.974Z,2.40
2019-03-13T19:25:27.415Z,1.93
2019-03-13T19:27:56.000Z,1.93
2019-03-13T19:30:37.521Z,3.90
2019-03-13T19:33:05.247Z,8.33
2019-03-13T19:35:33.683Z,2.63
2019-03-13T19:38:05.467Z,5.70
2019-03-13T19:40:34.234Z,6.20
2019-03-13T19:43:02.678Z,4.40
2019-03-13T19:45:34.024Z,6.97
2019-03-13T19:48:02.443Z,2.90
2019-03-13T19:50:30.870Z,2.83
2019-03-13T19:52:59.290Z,2.07
2019-03-13T19:55:27.771Z,2.87
2019-03-13T19:57:56.231Z,2.13
2019-03-13T20:00:26.591Z,1.73
2019-03-13T20:03:03.391Z,2.10
2019-03-13T20:05:44.195Z,2.20
2019-03-13T20:08:01.986Z,1.67
2019-03-13T20:10:31.063Z,1.87
2019-03-13T20:12:59.485Z,1.33
2019-03-13T20:15:29.453Z,1.63
2019-03-13T20:17:57.873Z,1.10
2019-03-13T20:20:26.381Z,1.50
2019-03-13T20:23:12.166Z,1.80
2019-03-13T20:25:40.643Z,1.10
2019-03-13T20:28:09.039Z,1.80
2019-03-13T20:30:37.613Z,1.93
2019-03-13T20:33:06.106Z,1.70
2019-03-13T20:35:36.822Z,1.00
2019-03-13T20:38:04.794Z,1.90
2019-03-13T20:40:33.292Z,1.63
2019-03-13T20:43:02.387Z,2.63
2019-03-13T20:45:31.295Z,1.50
2019-03-13T20:47:59.781Z,1.70
2019-03-13T20:50:36.540Z,1.30
2019-03-13T20:52:59.309Z,1.10
2019-03-13T20:55:27.771Z,1.37
2019-03-13T20:57:59.307Z,1.23
2019-03-13T21:00:28.381Z,1.40
2019-03-13T21:02:57.646Z,1.20
2019-03-13T21:05:26.671Z,1.27
2019-03-13T21:07:55.143Z,1.27
2019-03-13T21:10:23.642Z,1.30
2019-03-13T21:12:52.358Z,1.37
2019-03-13T21:15:25.954Z,1.40
2019-03-13T21:17:56.114Z,1.53
2019-03-13T21:20:24.795Z,1.70
2019-03-13T21:22:53.226Z,1.20
2019-03-13T21:25:24.069Z,1.20
2019-03-13T21:27:52.597Z,1.50
2019-03-13T21:30:22.656Z,1.50
2019-03-13T21:32:51.128Z,1.40
2019-03-13T21:35:19.545Z,1.30
2019-03-13T21:37:48.009Z,1.20
2019-03-13T21:40:19.149Z,1.10
2019-03-13T21:42:47.584Z,1.40
2019-03-13T21:45:22.468Z,1.40
2019-03-13T21:47:46.349Z,1.57
2019-03-13T21:50:16.218Z,1.37
2019-03-13T21:52:44.656Z,1.53
2019-03-13T21:55:17.321Z,2.00
2019-03-13T21:57:46.645Z,1.30
2019-03-13T22:01:00.903Z,1.80
2019-03-13T22:03:48.755Z,1.30
2019-03-13T22:06:36.514Z,1.00
2019-03-13T22:09:45.003Z,1.70
2019-03-13T22:12:32.759Z,0.90
2019-03-13T22:15:20.998Z,1.10
2019-03-13T22:18:08.886Z,0.70
2019-03-13T22:20:56.700Z,0.70
2019-03-13T22:23:25.203Z,0.80
2019-03-13T22:26:12.964Z,0.70
2019-03-13T22:28:41.408Z,0.70
2019-03-13T22:31:29.194Z,0.80
2019-03-13T22:34:16.943Z,0.87
2019-03-13T22:37:04.714Z,0.80
2019-03-13T22:39:52.474Z,0.87
2019-03-13T22:42:40.228Z,1.10
2019-03-13T22:45:27.997Z,0.70
2019-03-13T22:48:15.754Z,1.03
2019-03-13T22:51:03.532Z,1.53
2019-03-13T22:53:44.439Z,1.10
2019-03-13T22:56:25.249Z,1.50
2019-03-13T22:59:05.907Z,0.90
2019-03-13T23:01:46.935Z,1.10
2019-03-13T23:04:27.596Z,1.07
2019-03-13T23:07:08.290Z,1.67
2019-03-13T23:09:49.306Z,0.90
2019-03-13T23:12:30.493Z,1.33
2019-03-13T23:15:10.948Z,1.10
2019-03-13T23:17:51.938Z,1.40
2019-03-13T23:20:32.531Z,1.63
2019-03-13T23:23:13.013Z,1.67
2019-03-13T23:25:53.990Z,1.23
2019-03-13T23:28:22.406Z,1.13
2019-03-13T23:31:10.171Z,1.47
2019-03-13T23:33:57.932Z,1.33
2019-03-13T23:36:45.716Z,1.10
2019-03-13T23:39:33.450Z,0.97
2019-03-13T23:42:21.222Z,0.77
2019-03-13T23:45:09.188Z,1.07
2019-03-13T23:47:57.002Z,1.10
2019-03-13T23:50:44.765Z,1.20
2019-03-13T23:53:25.498Z,0.93
2019-03-13T23:56:06.579Z,1.00
2019-03-13T23:58:47.521Z,0.90
